createdAt,value
2022-10-08T00:01:23.232Z,94172.88
2022-10-08T00:06:30.303Z,94179.13
2022-10-08T00:11:39.370Z,94164.47
2022-10-08T00:16:42.554Z,94160.88
2022-10-08T00:21:46.880Z,94162.78
2022-10-08T00:26:51.724Z,94151.00
2022-10-08T00:31:54.821Z,94142.66
2022-10-08T00:36:58.277Z,94136.28
2022-10-08T00:42:02.855Z,94150.34
2022-10-08T00:47:15.773Z,94143.28
2022-10-08T00:52:20.265Z,94140.84
2022-10-08T00:57:24.033Z,94130.75
2022-10-08T01:02:27.891Z,94125.97
2022-10-08T01:08:10.971Z,94088.44
2022-10-08T01:13:15.169Z,94115.72
2022-10-08T01:18:37.927Z,94110.31
2022-10-08T01:24:10.008Z,94107.88
2022-10-08T01:29:18.218Z,94110.16
2022-10-08T01:34:28.866Z,94102.31
2022-10-08T01:39:35.542Z,94107.69
2022-10-08T01:44:43.656Z,94071.44
2022-10-08T01:49:52.110Z,94098.22
2022-10-08T01:55:01.407Z,94066.75
2022-10-08T02:00:10.905Z,94069.97
2022-10-08T02:05:17.243Z,94075.16
2022-10-08T02:10:24.485Z,94077.25
2022-10-08T02:15:30.783Z,94070.03
2022-10-08T02:20:36.897Z,94072.19
2022-10-08T02:25:47.193Z,94070.28
2022-10-08T02:30:59.671Z,94046.41
2022-10-08T02:36:06.708Z,94059.13
2022-10-08T02:41:12.990Z,94030.97
2022-10-08T02:46:25.270Z,94060.94
2022-10-08T02:51:31.809Z,94044.09
2022-10-08T02:57:07.036Z,94066.63
2022-10-08T03:02:18.531Z,94036.06
2022-10-08T03:07:24.422Z,94061.31
2022-10-08T03:12:28.339Z,94032.94
2022-10-08T03:17:36.308Z,94056.09
2022-10-08T03:22:41.143Z,94069.84
2022-10-08T03:27:44.077Z,94074.13
2022-10-08T03:32:47.725Z,94069.72
2022-10-08T03:37:53.963Z,94048.75
2022-10-08T03:42:57.512Z,94065.88
2022-10-08T03:48:00.692Z,94041.03
2022-10-08T03:53:04.115Z,94068.53
2022-10-08T03:58:07.548Z,94058.31
2022-10-08T04:03:11.075Z,94078.06
2022-10-08T04:08:13.998Z,94068.41
2022-10-08T04:13:17.848Z,94049.91
2022-10-08T04:18:21.330Z,94063.41
2022-10-08T04:23:25.271Z,94069.78
2022-10-08T04:28:29.211Z,94058.59
2022-10-08T04:33:35.150Z,94061.00
2022-10-08T04:38:38.338Z,94052.44
2022-10-08T04:43:43.403Z,94057.97
2022-10-08T04:48:54.503Z,94056.41
2022-10-08T04:53:58.820Z,94054.88
2022-10-08T04:59:03.280Z,94049.34
2022-10-08T05:04:06.234Z,94058.00
2022-10-08T05:09:10.052Z,93996.91
2022-10-08T05:14:13.204Z,94022.91
2022-10-08T05:19:16.178Z,94045.72
2022-10-08T05:24:19.354Z,94059.56
2022-10-08T05:29:22.371Z,94057.00
2022-10-08T05:34:26.488Z,94056.22
2022-10-08T05:39:29.890Z,94052.75
2022-10-08T05:44:37.425Z,94058.84
2022-10-08T05:49:41.054Z,94068.44
2022-10-08T05:54:44.821Z,94061.69
2022-10-08T05:59:48.028Z,94072.16
2022-10-08T06:04:51.750Z,94071.38
2022-10-08T06:09:54.944Z,94067.06
2022-10-08T06:14:58.435Z,94047.34
2022-10-08T06:20:01.426Z,94063.97
2022-10-08T06:25:05.201Z,94073.91
2022-10-08T06:30:09.251Z,94074.50
2022-10-08T06:35:12.688Z,94085.00
2022-10-08T06:40:15.848Z,94093.31
2022-10-08T06:45:20.138Z,94075.88
2022-10-08T06:50:23.108Z,94082.94
2022-10-08T06:55:26.746Z,94100.31
2022-10-08T07:00:29.869Z,94098.97
2022-10-08T07:05:34.231Z,94104.16
2022-10-08T07:10:37.317Z,94101.56
2022-10-08T07:15:41.947Z,94100.28
2022-10-08T07:20:44.953Z,94100.13
2022-10-08T07:26:05.273Z,94112.91
2022-10-08T07:31:15.564Z,94110.69
2022-10-08T07:36:21.377Z,94095.13
2022-10-08T07:41:26.323Z,94097.25
2022-10-08T07:46:32.323Z,94117.03
2022-10-08T07:51:36.033Z,94129.16
2022-10-08T07:56:39.880Z,94087.38
2022-10-08T08:01:43.939Z,94127.16
2022-10-08T08:06:48.856Z,94121.38
2022-10-08T08:11:52.386Z,94134.84
2022-10-08T08:16:56.120Z,94106.06
2022-10-08T08:21:59.211Z,94138.09
2022-10-08T08:27:03.220Z,94135.13
2022-10-08T08:32:06.720Z,94112.88
2022-10-08T08:37:10.132Z,94126.53
2022-10-08T08:42:35.195Z,94129.03
2022-10-08T08:47:49.589Z,94127.41
2022-10-08T08:52:53.420Z,94132.25
2022-10-08T08:58:11.102Z,94136.72
2022-10-08T09:03:35.081Z,94141.16
2022-10-08T09:08:44.263Z,94128.78
2022-10-08T09:14:03.853Z,94137.66
2022-10-08T09:19:07.382Z,94136.44
2022-10-08T09:24:12.133Z,94116.53
2022-10-08T09:29:34.148Z,94123.72
2022-10-08T09:34:37.462Z,94125.19
2022-10-08T09:40:06.551Z,94132.44
2022-10-08T09:45:32.324Z,94127.72
2022-10-08T09:50:37.675Z,94126.53
2022-10-08T09:55:41.251Z,94124.13
2022-10-08T10:00:44.367Z,94110.81
2022-10-08T10:05:53.408Z,94094.97
2022-10-08T10:10:57.454Z,94115.34
2022-10-08T10:16:15.944Z,94107.31
2022-10-08T10:21:36.846Z,94105.41
2022-10-08T10:26:43.640Z,94092.41
2022-10-08T10:32:14.500Z,94089.81
2022-10-08T10:37:30.589Z,94100.09
2022-10-08T10:42:48.870Z,94089.66
2022-10-08T10:47:55.469Z,94081.31
2022-10-08T10:53:00.270Z,94092.59
2022-10-08T10:58:50.272Z,94083.00
2022-10-08T11:04:10.310Z,94084.09
2022-10-08T11:09:25.984Z,94084.13
2022-10-08T11:15:02.672Z,94071.41
2022-10-08T11:20:25.804Z,94065.03
2022-10-08T11:26:10.694Z,94061.00
2022-10-08T11:31:31.131Z,94049.88
2022-10-08T11:36:48.062Z,93988.59
2022-10-08T11:42:03.538Z,94050.94
2022-10-08T11:47:37.359Z,94030.94
2022-10-08T11:52:42.154Z,94020.03
2022-10-08T11:58:07.592Z,94029.78
2022-10-08T12:03:31.714Z,94015.06
2022-10-08T12:08:57.874Z,94022.97
2022-10-08T12:14:15.058Z,94017.41
2022-10-08T12:19:37.622Z,94009.88
2022-10-08T12:24:43.783Z,94002.94
2022-10-08T12:30:14.751Z,94005.84
2022-10-08T12:35:42.751Z,93984.56
2022-10-08T12:40:54.561Z,93977.91
2022-10-08T12:46:21.519Z,93985.88
2022-10-08T12:51:29.829Z,93983.88
2022-10-08T12:56:34.169Z,93985.22
2022-10-08T13:01:41.980Z,93983.44
2022-10-08T13:06:47.982Z,93971.19
2022-10-08T13:11:57.218Z,93967.03
2022-10-08T13:17:02.840Z,93969.03
2022-10-08T13:22:09.180Z,93973.22
2022-10-08T13:27:29.942Z,93962.16
2022-10-08T13:32:35.462Z,93963.25
2022-10-08T13:37:40.758Z,93955.94
2022-10-08T13:42:59.081Z,93953.13
2022-10-08T13:48:02.242Z,93939.28
2022-10-08T13:53:08.603Z,93952.56
2022-10-08T13:58:16.928Z,93947.63
2022-10-08T14:03:20.398Z,93937.75
2022-10-08T14:08:27.759Z,93938.63
2022-10-08T14:13:31.354Z,93962.78
2022-10-08T14:18:34.777Z,93951.56
2022-10-08T14:23:37.714Z,93955.50
2022-10-08T14:28:42.400Z,93957.50
2022-10-08T14:33:45.509Z,93966.34
2022-10-08T14:38:49.347Z,93965.81
2022-10-08T14:43:52.742Z,93968.97
2022-10-08T14:48:56.578Z,93949.81
2022-10-08T14:53:59.489Z,93954.81
2022-10-08T14:59:02.487Z,93942.16
2022-10-08T15:04:06.420Z,93955.03
2022-10-08T15:09:12.590Z,93930.13
2022-10-08T15:14:17.714Z,93950.78
2022-10-08T15:19:23.850Z,93958.59
2022-10-08T15:24:27.724Z,93953.16
2022-10-08T15:29:31.131Z,93952.06
2022-10-08T15:34:34.623Z,93944.53
2022-10-08T15:39:38.312Z,93954.19
2022-10-08T15:44:43.557Z,93958.13
2022-10-08T15:49:47.079Z,93956.06
2022-10-08T15:54:50.568Z,93962.88
2022-10-08T15:59:54.008Z,93967.63
2022-10-08T16:04:57.249Z,93978.94
2022-10-08T16:10:00.798Z,93979.84
2022-10-08T16:15:04.273Z,93987.38
2022-10-08T16:20:07.601Z,93995.66
2022-10-08T16:25:10.514Z,93984.06
2022-10-08T16:30:13.935Z,94006.81
2022-10-08T16:35:18.167Z,94001.44
2022-10-08T16:40:21.578Z,94000.47
2022-10-08T16:45:26.234Z,93991.13
2022-10-08T16:50:30.025Z,94001.25
2022-10-08T16:55:38.691Z,93992.78
2022-10-08T17:00:41.632Z,94023.28
2022-10-08T17:05:44.595Z,94016.09
2022-10-08T17:10:50.246Z,94003.91
2022-10-08T17:16:04.520Z,94000.69
2022-10-08T17:21:10.071Z,94016.31
2022-10-08T17:26:17.044Z,94021.81
2022-10-08T17:31:26.991Z,94021.50
2022-10-08T17:36:34.386Z,94016.22
2022-10-08T17:41:41.180Z,94000.69
2022-10-08T17:46:48.605Z,94029.63
2022-10-08T17:51:51.749Z,94030.59
2022-10-08T17:56:56.211Z,94029.97
2022-10-08T18:01:59.607Z,94026.63
2022-10-08T18:07:03.644Z,94041.59
2022-10-08T18:12:07.824Z,94031.47
2022-10-08T18:17:11.361Z,94041.19
2022-10-08T18:22:15.623Z,94032.41
2022-10-08T18:27:18.973Z,94042.53
2022-10-08T18:32:22.165Z,94058.56
2022-10-08T18:37:25.944Z,94051.88
2022-10-08T18:42:29.534Z,94053.72
2022-10-08T18:47:33.473Z,94054.41
2022-10-08T18:52:37.125Z,94044.59
2022-10-08T18:57:41.181Z,94070.41
2022-10-08T19:02:44.617Z,94067.81
2022-10-08T19:07:48.498Z,94058.66
2022-10-08T19:12:51.439Z,94069.88
2022-10-08T19:17:54.334Z,94069.00
2022-10-08T19:22:57.645Z,94068.19
2022-10-08T19:28:02.164Z,94081.63
2022-10-08T19:33:05.372Z,94091.84
2022-10-08T19:38:08.386Z,94078.69
2022-10-08T19:43:12.186Z,94087.34
2022-10-08T19:48:15.946Z,94088.13
2022-10-08T19:53:19.545Z,94059.34
2022-10-08T19:58:23.617Z,94091.47
2022-10-08T20:03:26.982Z,94088.66
2022-10-08T20:08:31.206Z,94091.72
2022-10-08T20:13:36.734Z,94091.81
2022-10-08T20:18:40.807Z,94073.44
2022-10-08T20:23:44.818Z,94080.94
2022-10-08T20:28:53.581Z,94091.53
2022-10-08T20:34:13.621Z,94089.25
2022-10-08T20:39:18.977Z,94098.56
2022-10-08T20:44:22.871Z,94084.63
2022-10-08T20:49:26.847Z,94102.09
2022-10-08T20:54:29.847Z,94083.38
2022-10-08T20:59:34.308Z,94105.66
2022-10-08T21:04:37.256Z,94102.03
2022-10-08T21:09:40.864Z,94038.38
2022-10-08T21:14:43.791Z,94096.53
2022-10-08T21:19:46.685Z,94082.84
2022-10-08T21:24:49.589Z,94068.41
2022-10-08T21:29:52.959Z,94091.00
2022-10-08T21:34:56.040Z,94071.09
2022-10-08T21:39:59.480Z,94071.13
2022-10-08T21:45:02.467Z,94083.38
2022-10-08T21:50:06.413Z,94077.22
2022-10-08T21:55:09.569Z,94063.50
2022-10-08T22:00:14.340Z,94066.34
2022-10-08T22:05:17.278Z,94061.66
2022-10-08T22:10:20.731Z,94062.09
2022-10-08T22:15:23.774Z,94056.28
2022-10-08T22:20:26.798Z,94063.00
2022-10-08T22:25:31.242Z,94037.91
2022-10-08T22:30:38.775Z,94015.19
2022-10-08T22:35:41.909Z,94041.50
2022-10-08T22:40:45.662Z,94029.75
2022-10-08T22:45:49.555Z,94032.91
2022-10-08T22:50:52.683Z,94015.63
2022-10-08T22:55:56.440Z,94034.47
2022-10-08T23:01:11.821Z,94019.16
2022-10-08T23:06:18.402Z,94019.94
2022-10-08T23:11:21.997Z,93972.03
2022-10-08T23:16:27.160Z,94021.47
2022-10-08T23:21:30.116Z,94033.63
2022-10-08T23:26:34.884Z,94030.09
2022-10-08T23:31:38.163Z,94008.09
2022-10-08T23:36:43.516Z,93997.47
2022-10-08T23:41:46.403Z,94029.69
2022-10-08T23:46:49.326Z,94025.78
2022-10-08T23:51:52.665Z,94019.50
2022-10-08T23:56:55.586Z,94010.41
